createdAt,value
2018-07-22T00:01:16.706Z,18.75
2018-07-22T00:06:21.026Z,19.00
2018-07-22T00:11:25.367Z,17.60
2018-07-22T00:16:29.222Z,16.40
2018-07-22T00:21:33.291Z,18.80
2018-07-22T00:26:37.506Z,17.20
2018-07-22T00:31:42.668Z,19.25
2018-07-22T00:36:46.805Z,19.00
2018-07-22T00:41:52.016Z,19.00
2018-07-22T00:46:56.428Z,19.20
2018-07-22T00:52:01.594Z,17.50
2018-07-22T00:57:05.606Z,19.75
2018-07-22T01:02:10.672Z,18.75
2018-07-22T01:07:14.734Z,18.75
2018-07-22T01:12:19.035Z,18.75
2018-07-22T01:17:23.233Z,17.40
2018-07-22T01:22:27.157Z,19.50
2018-07-22T01:27:32.007Z,18.60
2018-07-22T01:32:36.000Z,19.50
2018-07-22T01:37:40.804Z,19.20
2018-07-22T01:42:45.104Z,18.50
2018-07-22T01:47:49.314Z,19.00
2018-07-22T01:52:53.864Z,19.00
2018-07-22T01:57:58.001Z,18.75
2018-07-22T02:03:02.522Z,17.80
2018-07-22T02:08:06.631Z,18.00
2018-07-22T02:13:10.798Z,19.25
2018-07-22T02:18:15.655Z,19.25
2018-07-22T02:23:20.084Z,19.00
2018-07-22T02:28:25.668Z,17.60
2018-07-22T02:33:29.917Z,18.75
2018-07-22T02:38:34.375Z,20.80
2018-07-22T02:43:38.278Z,20.00
2018-07-22T02:48:42.218Z,18.60
2018-07-22T02:53:46.144Z,17.60
2018-07-22T02:58:50.006Z,17.00
2018-07-22T03:03:53.830Z,18.50
2018-07-22T03:08:58.696Z,18.25
2018-07-22T03:14:02.465Z,18.25
2018-07-22T03:19:07.261Z,19.75
2018-07-22T03:24:11.213Z,20.40
2018-07-22T03:29:15.010Z,20.50
2018-07-22T03:34:18.791Z,18.50
2018-07-22T03:39:22.854Z,19.75
2018-07-22T03:44:26.792Z,18.75
2018-07-22T03:49:30.719Z,20.50
2018-07-22T03:54:34.718Z,18.50
2018-07-22T03:59:38.487Z,19.00
2018-07-22T04:04:43.213Z,19.20
2018-07-22T04:09:47.020Z,18.40
2018-07-22T04:14:50.861Z,19.00
2018-07-22T04:19:54.711Z,20.75
2018-07-22T04:24:59.313Z,19.50
2018-07-22T04:30:10.056Z,18.50
2018-07-22T04:35:13.962Z,18.00
2018-07-22T04:40:17.877Z,19.20
2018-07-22T04:45:21.732Z,18.20
2018-07-22T04:50:25.558Z,18.40
2018-07-22T04:55:29.413Z,16.75
2018-07-22T05:00:33.188Z,17.50
2018-07-22T05:05:36.939Z,16.40
2018-07-22T05:10:40.871Z,17.40
2018-07-22T05:15:45.299Z,16.00
2018-07-22T05:20:49.560Z,14.20
2018-07-22T05:25:53.929Z,17.50
2018-07-22T05:30:57.835Z,16.40
2018-07-22T05:36:01.893Z,18.00
2018-07-22T05:41:05.719Z,17.20
2018-07-22T05:46:09.530Z,17.00
2018-07-22T05:51:13.439Z,16.75
2018-07-22T05:56:17.266Z,16.20
2018-07-22T06:01:21.818Z,17.75
2018-07-22T06:06:25.764Z,15.75
2018-07-22T06:11:29.536Z,18.75
2018-07-22T06:16:33.374Z,18.25
2018-07-22T06:21:37.261Z,18.50
2018-07-22T06:26:41.032Z,18.75
2018-07-22T06:31:45.236Z,18.40
2018-07-22T06:36:49.001Z,17.60
2018-07-22T06:41:52.644Z,22.80
2018-07-22T06:46:56.360Z,20.50
2018-07-22T06:51:59.976Z,21.75
2018-07-22T06:57:03.741Z,22.00
2018-07-22T07:02:07.442Z,21.25
2018-07-22T07:07:13.998Z,22.00
2018-07-22T07:12:17.698Z,23.50
2018-07-22T07:17:21.386Z,23.25
2018-07-22T07:22:25.192Z,21.50
2018-07-22T07:27:28.907Z,22.40
2018-07-22T07:32:32.558Z,21.20
2018-07-22T07:37:36.239Z,21.00
2018-07-22T07:42:40.244Z,21.00
2018-07-22T07:47:43.920Z,20.80
2018-07-22T07:52:48.019Z,22.00
2018-07-22T07:57:51.752Z,20.00
2018-07-22T08:02:55.493Z,22.00
2018-07-22T08:07:59.128Z,21.20
2018-07-22T08:13:02.883Z,20.00
2018-07-22T08:18:06.542Z,20.75
2018-07-22T08:23:11.108Z,16.50
2018-07-22T08:28:15.281Z,17.20
2018-07-22T08:33:18.991Z,15.20
2018-07-22T08:38:22.794Z,17.25
2018-07-22T08:43:26.502Z,17.75
2018-07-22T08:48:30.206Z,15.25
2018-07-22T08:53:34.000Z,18.00
2018-07-22T08:58:37.751Z,13.60
2018-07-22T09:03:41.436Z,14.00
2018-07-22T09:08:45.125Z,13.40
2018-07-22T09:13:48.805Z,14.40
2018-07-22T09:36:53.866Z,15.40
2018-07-22T09:41:57.707Z,15.40
2018-07-22T09:47:01.517Z,15.50
2018-07-22T09:52:05.263Z,17.25
2018-07-22T09:57:09.627Z,15.00
2018-07-22T10:02:13.266Z,14.75
2018-07-22T10:07:16.956Z,14.80
2018-07-22T10:12:20.781Z,14.20
2018-07-22T10:17:24.430Z,15.50
2018-07-22T10:22:28.177Z,15.60
2018-07-22T10:27:31.794Z,15.80
2018-07-22T10:32:35.563Z,17.00
2018-07-22T10:37:39.349Z,14.25
2018-07-22T10:42:43.150Z,16.50
2018-07-22T10:47:46.914Z,15.60
2018-07-22T10:52:50.602Z,15.80
2018-07-22T10:57:54.456Z,17.25
2018-07-22T11:02:58.246Z,15.00
2018-07-22T11:08:02.132Z,16.60
2018-07-22T11:13:05.880Z,16.60
2018-07-22T11:18:09.698Z,17.20
2018-07-22T11:23:13.488Z,17.75
2018-07-22T11:28:17.254Z,18.20
2018-07-22T11:33:21.061Z,16.00
2018-07-22T11:38:24.901Z,17.50
2018-07-22T11:43:28.726Z,18.25
2018-07-22T11:48:32.475Z,15.25
2018-07-22T11:53:36.232Z,16.00
2018-07-22T11:58:40.099Z,16.20
2018-07-22T12:03:44.409Z,18.25
2018-07-22T12:08:48.200Z,15.60
2018-07-22T12:13:51.904Z,18.60
2018-07-22T12:18:55.605Z,17.50
2018-07-22T12:24:07.770Z,17.50
2018-07-22T12:29:11.576Z,16.25
2018-07-22T12:34:15.328Z,18.25
2018-07-22T12:39:19.013Z,15.00
2018-07-22T12:44:23.689Z,16.60
2018-07-22T12:49:27.309Z,18.00
2018-07-22T12:54:31.068Z,17.40
2018-07-22T12:59:34.997Z,18.60
2018-07-22T13:04:38.725Z,19.00
2018-07-22T13:09:42.451Z,18.00
2018-07-22T13:14:46.236Z,17.80
2018-07-22T13:19:49.986Z,17.20
2018-07-22T13:24:53.696Z,17.00
2018-07-22T13:29:57.396Z,17.50
2018-07-22T13:35:03.475Z,16.60
2018-07-22T13:40:08.150Z,16.50
2018-07-22T13:45:11.879Z,16.80
2018-07-22T13:50:15.512Z,16.80
2018-07-22T13:55:19.222Z,17.50
2018-07-22T14:00:22.933Z,16.60
2018-07-22T14:05:26.627Z,16.80
2018-07-22T14:10:30.229Z,16.50
2018-07-22T14:15:33.920Z,15.80
2018-07-22T14:20:37.668Z,16.00
2018-07-22T14:25:41.318Z,15.50
2018-07-22T14:30:45.284Z,16.25
2018-07-22T14:35:49.097Z,15.50
2018-07-22T14:40:52.883Z,16.60
2018-07-22T14:45:56.708Z,15.25
2018-07-22T14:51:00.436Z,15.50
2018-07-22T14:56:04.215Z,14.75
2018-07-22T15:01:08.053Z,14.60
2018-07-22T15:06:12.265Z,15.20
2018-07-22T15:11:24.742Z,14.40
2018-07-22T15:16:28.440Z,12.75
2018-07-22T15:21:32.119Z,13.20
2018-07-22T15:26:36.931Z,12.80
2018-07-22T15:31:41.538Z,14.40
2018-07-22T15:36:45.598Z,12.25
2018-07-22T15:41:51.502Z,12.75
2018-07-22T15:46:55.154Z,12.80
2018-07-22T15:51:58.879Z,12.80
2018-07-22T15:57:02.560Z,14.50
2018-07-22T16:02:12.996Z,13.50
2018-07-22T16:07:17.867Z,13.80
2018-07-22T16:12:21.897Z,13.25
2018-07-22T16:17:25.733Z,14.75
2018-07-22T16:22:29.445Z,17.25
2018-07-22T16:27:33.230Z,14.75
2018-07-22T16:32:37.091Z,15.80
2018-07-22T16:37:40.904Z,14.60
2018-07-22T16:42:44.658Z,15.75
2018-07-22T16:47:48.492Z,16.25
2018-07-22T16:52:52.195Z,16.75
2018-07-22T16:57:55.956Z,17.40
2018-07-22T17:02:59.770Z,15.80
2018-07-22T17:08:04.476Z,18.75
2018-07-22T17:13:08.190Z,18.80
2018-07-22T17:18:12.087Z,19.60
2018-07-22T17:23:15.818Z,18.00
2018-07-22T17:28:20.909Z,18.75
2018-07-22T17:33:24.916Z,19.00
2018-07-22T17:38:28.679Z,18.50
2018-07-22T17:43:33.077Z,18.25
2018-07-22T17:48:36.786Z,18.75
2018-07-22T17:53:41.022Z,18.25
2018-07-22T17:58:45.150Z,16.50
2018-07-22T18:03:48.992Z,17.20
2018-07-22T18:08:53.410Z,17.50
2018-07-22T18:13:57.124Z,19.20
2018-07-22T18:19:00.743Z,16.50
2018-07-22T18:24:04.416Z,16.00
2018-07-22T18:29:08.177Z,15.60
2018-07-22T18:34:12.059Z,17.20
2018-07-22T18:39:16.953Z,16.20
2018-07-22T18:44:20.736Z,16.00
2018-07-22T18:49:25.124Z,16.25
2018-07-22T18:54:28.920Z,15.00
2018-07-22T18:59:33.493Z,17.00
2018-07-22T19:04:37.397Z,16.80
2018-07-22T19:09:41.299Z,17.60
2018-07-22T19:14:45.584Z,18.80
2018-07-22T19:19:50.427Z,19.50
2018-07-22T19:24:55.467Z,18.25
2018-07-22T19:29:59.997Z,19.25
2018-07-22T19:35:07.787Z,16.25
2018-07-22T19:40:12.176Z,17.00
2018-07-22T19:45:16.501Z,17.20
2018-07-22T19:50:20.953Z,16.80
2018-07-22T19:55:25.562Z,17.40
2018-07-22T20:00:29.421Z,17.50
2018-07-22T20:05:33.009Z,16.00
2018-07-22T20:10:37.321Z,16.00
2018-07-22T20:15:41.039Z,16.00
2018-07-22T20:20:45.096Z,17.00
2018-07-22T20:25:48.900Z,16.20
2018-07-22T20:30:52.577Z,15.60
2018-07-22T20:35:57.187Z,14.20
2018-07-22T20:41:02.044Z,14.20
2018-07-22T20:46:05.813Z,15.00
2018-07-22T20:51:09.618Z,15.60
2018-07-22T20:56:13.346Z,15.50
2018-07-22T21:01:17.033Z,14.60
2018-07-22T21:06:20.659Z,14.75
2018-07-22T21:11:24.342Z,15.00
2018-07-22T21:16:28.314Z,12.75
2018-07-22T21:21:31.928Z,14.25
2018-07-22T21:26:35.564Z,14.20
2018-07-22T21:31:39.946Z,15.00
2018-07-22T21:36:43.638Z,13.60
2018-07-22T21:41:47.293Z,14.75
2018-07-22T21:46:51.154Z,14.20
2018-07-22T21:51:54.827Z,15.00
2018-07-22T21:56:58.692Z,13.25
2018-07-22T22:02:03.839Z,14.00
2018-07-22T22:07:08.706Z,13.80
2018-07-22T22:12:13.652Z,15.25
2018-07-22T22:17:19.355Z,16.25
2018-07-22T22:22:23.329Z,15.00
2018-07-22T22:27:28.298Z,13.40
2018-07-22T22:32:32.310Z,12.25
2018-07-22T22:37:36.291Z,12.80
2018-07-22T22:42:40.358Z,14.40
2018-07-22T22:47:44.976Z,15.00
2018-07-22T22:52:49.968Z,13.00
2018-07-22T22:58:05.112Z,14.00
2018-07-22T23:03:09.408Z,13.20
2018-07-22T23:24:36.977Z,12.40
2018-07-22T23:29:42.085Z,13.75
2018-07-22T23:34:46.051Z,12.80
2018-07-22T23:39:50.325Z,12.50
2018-07-22T23:44:54.134Z,11.20
2018-07-22T23:49:58.548Z,12.50
2018-07-22T23:55:08.073Z,11.60
